sensor_id;sensor_type;location;lat;lon;timestamp;temperature;humidity
9640;DHT22;51745;50.872;4.732;2023-05-10T00:00:50;11.90;99.90
9640;DHT22;51745;50.872;4.732;2023-05-10T00:03:39;11.80;99.90
9640;DHT22;51745;50.872;4.732;2023-05-10T00:06:28;11.80;99.90
9640;DHT22;51745;50.872;4.732;2023-05-10T00:09:16;11.90;99.90
9640;DHT22;51745;50.872;4.732;2023-05-10T00:12:04;11.90;99.90
9640;DHT22;51745;50.872;4.732;2023-05-10T00:14:54;11.90;99.90
9640;DHT22;51745;50.872;4.732;2023-05-10T00:17:41;11.90;99.90
9640;DHT22;51745;50.872;4.732;2023-05-10T00:20:30;11.90;99.90
9640;DHT22;51745;50.872;4.732;2023-05-10T00:23:18;11.90;99.90
9640;DHT22;51745;50.872;4.732;2023-05-10T00:26:05;11.80;99.90
9640;DHT22;51745;50.872;4.732;2023-05-10T00:28:54;11.80;99.90
9640;DHT22;51745;50.872;4.732;2023-05-10T00:31:42;11.90;99.90
9640;DHT22;51745;50.872;4.732;2023-05-10T00:34:30;11.90;99.90
9640;DHT22;51745;50.872;4.732;2023-05-10T00:37:18;11.90;99.90
9640;DHT22;51745;50.872;4.732;2023-05-10T00:40:06;11.80;99.90
9640;DHT22;51745;50.872;4.732;2023-05-10T00:42:54;11.80;99.90
9640;DHT22;51745;50.872;4.732;2023-05-10T00:45:41;11.80;99.90
9640;DHT22;51745;50.872;4.732;2023-05-10T00:48:31;12.00;99.90
9640;DHT22;51745;50.872;4.732;2023-05-10T00:51:19;11.90;99.90
9640;DHT22;51745;50.872;4.732;2023-05-10T00:54:07;11.80;99.90
9640;DHT22;51745;50.872;4.732;2023-05-10T00:56:54;11.80;99.90
9640;DHT22;51745;50.872;4.732;2023-05-10T00:59:43;11.80;99.90
9640;DHT22;51745;50.872;4.732;2023-05-10T01:02:30;11.80;99.90
9640;DHT22;51745;50.872;4.732;2023-05-10T01:05:21;11.80;99.90
9640;DHT22;51745;50.872;4.732;2023-05-10T01:08:09;11.80;99.90
9640;DHT22;51745;50.872;4.732;2023-05-10T01:10:57;12.00;99.90
9640;DHT22;51745;50.872;4.732;2023-05-10T01:13:45;11.80;99.90
9640;DHT22;51745;50.872;4.732;2023-05-10T01:16:35;11.80;99.90
9640;DHT22;51745;50.872;4.732;2023-05-10T01:19:24;11.80;99.90
9640;DHT22;51745;50.872;4.732;2023-05-10T01:22:20;11.90;99.90
9640;DHT22;51745;50.872;4.732;2023-05-10T01:25:18;11.90;99.90
9640;DHT22;51745;50.872;4.732;2023-05-10T01:28:17;11.90;99.90
9640;DHT22;51745;50.872;4.732;2023-05-10T01:31:18;12.00;99.90
9640;DHT22;51745;50.872;4.732;2023-05-10T01:34:11;11.90;99.90
9640;DHT22;51745;50.872;4.732;2023-05-10T01:37:01;11.90;99.90
9640;DHT22;51745;50.872;4.732;2023-05-10T01:39:50;11.90;99.90
9640;DHT22;51745;50.872;4.732;2023-05-10T01:42:40;11.80;99.90
9640;DHT22;51745;50.872;4.732;2023-05-10T01:45:30;11.80;99.90
9640;DHT22;51745;50.872;4.732;2023-05-10T01:48:19;11.80;99.90
9640;DHT22;51745;50.872;4.732;2023-05-10T01:51:08;11.80;99.90
9640;DHT22;51745;50.872;4.732;2023-05-10T01:53:59;11.80;99.90
9640;DHT22;51745;50.872;4.732;2023-05-10T01:56:50;11.90;99.90
9640;DHT22;51745;50.872;4.732;2023-05-10T01:59:40;11.80;99.90
9640;DHT22;51745;50.872;4.732;2023-05-10T02:02:29;12.00;99.90
9640;DHT22;51745;50.872;4.732;2023-05-10T02:05:16;11.80;99.90
9640;DHT22;51745;50.872;4.732;2023-05-10T02:08:07;11.80;99.90
9640;DHT22;51745;50.872;4.732;2023-05-10T02:10:55;11.90;99.90
9640;DHT22;51745;50.872;4.732;2023-05-10T02:13:43;12.90;99.90
9640;DHT22;51745;50.872;4.732;2023-05-10T02:16:33;12.10;99.90
9640;DHT22;51745;50.872;4.732;2023-05-10T02:19:23;11.80;99.90
9640;DHT22;51745;50.872;4.732;2023-05-10T02:22:10;13.30;99.90
9640;DHT22;51745;50.872;4.732;2023-05-10T02:25:00;11.80;99.90
9640;DHT22;51745;50.872;4.732;2023-05-10T02:27:48;11.80;99.90
9640;DHT22;51745;50.872;4.732;2023-05-10T02:30:37;11.80;99.90
9640;DHT22;51745;50.872;4.732;2023-05-10T02:33:25;11.90;99.90
9640;DHT22;51745;50.872;4.732;2023-05-10T02:36:13;11.70;99.90
9640;DHT22;51745;50.872;4.732;2023-05-10T02:39:04;11.90;99.90
9640;DHT22;51745;50.872;4.732;2023-05-10T02:41:57;11.90;99.90
9640;DHT22;51745;50.872;4.732;2023-05-10T02:44:45;11.90;99.90
9640;DHT22;51745;50.872;4.732;2023-05-10T02:47:34;11.90;99.90
9640;DHT22;51745;50.872;4.732;2023-05-10T02:50:22;11.90;99.90
9640;DHT22;51745;50.872;4.732;2023-05-10T02:53:14;11.80;99.90
9640;DHT22;51745;50.872;4.732;2023-05-10T02:56:05;14.30;99.90
9640;DHT22;51745;50.872;4.732;2023-05-10T02:58:55;11.90;99.90
9640;DHT22;51745;50.872;4.732;2023-05-10T03:01:42;11.90;99.90
9640;DHT22;51745;50.872;4.732;2023-05-10T03:04:31;11.90;99.90
9640;DHT22;51745;50.872;4.732;2023-05-10T03:07:19;11.90;99.90
9640;DHT22;51745;50.872;4.732;2023-05-10T03:10:07;11.90;99.90
9640;DHT22;51745;50.872;4.732;2023-05-10T03:13:01;12.60;99.90
9640;DHT22;51745;50.872;4.732;2023-05-10T03:15:56;9.40;99.90
9640;DHT22;51745;50.872;4.732;2023-05-10T03:18:47;11.90;99.90
9640;DHT22;51745;50.872;4.732;2023-05-10T03:21:38;11.90;99.90
9640;DHT22;51745;50.872;4.732;2023-05-10T03:24:28;11.90;99.90
9640;DHT22;51745;50.872;4.732;2023-05-10T03:27:18;11.90;99.90
9640;DHT22;51745;50.872;4.732;2023-05-10T03:30:07;11.90;99.90
9640;DHT22;51745;50.872;4.732;2023-05-10T03:32:59;11.90;99.90
9640;DHT22;51745;50.872;4.732;2023-05-10T03:35:53;13.30;99.90
9640;DHT22;51745;50.872;4.732;2023-05-10T03:38:41;11.80;99.90
9640;DHT22;51745;50.872;4.732;2023-05-10T03:41:29;11.80;99.90
9640;DHT22;51745;50.872;4.732;2023-05-10T03:44:17;11.80;99.90
9640;DHT22;51745;50.872;4.732;2023-05-10T03:47:06;11.80;99.90
9640;DHT22;51745;50.872;4.732;2023-05-10T03:49:55;12.20;99.90
9640;DHT22;51745;50.872;4.732;2023-05-10T03:52:43;14.10;99.90
9640;DHT22;51745;50.872;4.732;2023-05-10T03:55:30;11.80;99.90
9640;DHT22;51745;50.872;4.732;2023-05-10T03:58:21;11.70;99.90
9640;DHT22;51745;50.872;4.732;2023-05-10T04:01:08;11.70;99.90
9640;DHT22;51745;50.872;4.732;2023-05-10T04:03:57;11.70;99.90
9640;DHT22;51745;50.872;4.732;2023-05-10T04:06:48;11.70;99.90
9640;DHT22;51745;50.872;4.732;2023-05-10T04:09:35;11.70;99.90
9640;DHT22;51745;50.872;4.732;2023-05-10T04:12:24;11.70;99.90
9640;DHT22;51745;50.872;4.732;2023-05-10T04:15:12;11.70;99.90
9640;DHT22;51745;50.872;4.732;2023-05-10T04:18:00;11.60;99.90
9640;DHT22;51745;50.872;4.732;2023-05-10T04:20:48;11.60;99.90
9640;DHT22;51745;50.872;4.732;2023-05-10T04:23:37;11.60;99.90
9640;DHT22;51745;50.872;4.732;2023-05-10T04:26:26;11.60;99.90
9640;DHT22;51745;50.872;4.732;2023-05-10T04:29:14;11.50;99.90
9640;DHT22;51745;50.872;4.732;2023-05-10T04:32:02;11.50;99.90
9640;DHT22;51745;50.872;4.732;2023-05-10T04:34:50;11.50;99.90
9640;DHT22;51745;50.872;4.732;2023-05-10T04:37:38;11.50;99.90
9640;DHT22;51745;50.872;4.732;2023-05-10T04:40:27;11.50;99.90
9640;DHT22;51745;50.872;4.732;2023-05-10T04:43:14;11.50;99.90
9640;DHT22;51745;50.872;4.732;2023-05-10T04:46:02;10.60;99.90
9640;DHT22;51745;50.872;4.732;2023-05-10T04:48:51;12.70;99.90
9640;DHT22;51745;50.872;4.732;2023-05-10T04:51:39;11.60;99.90
9640;DHT22;51745;50.872;4.732;2023-05-10T04:54:26;11.60;99.90
9640;DHT22;51745;50.872;4.732;2023-05-10T04:57:15;11.70;99.90
9640;DHT22;51745;50.872;4.732;2023-05-10T05:00:10;11.60;99.90
9640;DHT22;51745;50.872;4.732;2023-05-10T05:02:58;11.60;99.90
9640;DHT22;51745;50.872;4.732;2023-05-10T05:05:47;11.60;99.90
9640;DHT22;51745;50.872;4.732;2023-05-10T05:08:36;11.60;99.90
9640;DHT22;51745;50.872;4.732;2023-05-10T05:11:24;11.50;99.90
9640;DHT22;51745;50.872;4.732;2023-05-10T05:14:16;12.60;99.90
9640;DHT22;51745;50.872;4.732;2023-05-10T05:17:05;11.50;99.90
9640;DHT22;51745;50.872;4.732;2023-05-10T05:19:53;11.50;99.90
9640;DHT22;51745;50.872;4.732;2023-05-10T05:22:42;11.50;99.90
9640;DHT22;51745;50.872;4.732;2023-05-10T05:25:30;9.30;99.90
9640;DHT22;51745;50.872;4.732;2023-05-10T05:28:20;11.70;99.90
9640;DHT22;51745;50.872;4.732;2023-05-10T05:31:12;11.60;99.90
9640;DHT22;51745;50.872;4.732;2023-05-10T05:34:00;11.70;99.90
9640;DHT22;51745;50.872;4.732;2023-05-10T05:36:48;11.80;99.90
9640;DHT22;51745;50.872;4.732;2023-05-10T05:39:35;11.60;99.90
9640;DHT22;51745;50.872;4.732;2023-05-10T05:42:26;11.70;99.90
9640;DHT22;51745;50.872;4.732;2023-05-10T05:45:16;11.70;99.90
9640;DHT22;51745;50.872;4.732;2023-05-10T05:48:12;11.70;99.90
9640;DHT22;51745;50.872;4.732;2023-05-10T05:51:03;11.70;99.90
9640;DHT22;51745;50.872;4.732;2023-05-10T05:53:52;12.00;99.90
9640;DHT22;51745;50.872;4.732;2023-05-10T05:56:47;11.80;99.90
9640;DHT22;51745;50.872;4.732;2023-05-10T05:59:34;11.80;99.90
9640;DHT22;51745;50.872;4.732;2023-05-10T06:02:22;10.70;99.90
9640;DHT22;51745;50.872;4.732;2023-05-10T06:05:12;11.30;99.90
9640;DHT22;51745;50.872;4.732;2023-05-10T06:08:02;11.70;99.90
9640;DHT22;51745;50.872;4.732;2023-05-10T06:10:55;11.80;99.90
9640;DHT22;51745;50.872;4.732;2023-05-10T06:13:43;11.70;99.90
9640;DHT22;51745;50.872;4.732;2023-05-10T06:16:31;11.80;99.90
9640;DHT22;51745;50.872;4.732;2023-05-10T06:19:22;11.80;99.90
9640;DHT22;51745;50.872;4.732;2023-05-10T06:22:14;11.90;99.90
9640;DHT22;51745;50.872;4.732;2023-05-10T06:25:03;13.00;99.90
9640;DHT22;51745;50.872;4.732;2023-05-10T06:27:51;12.00;99.90
9640;DHT22;51745;50.872;4.732;2023-05-10T06:30:43;12.00;99.90
9640;DHT22;51745;50.872;4.732;2023-05-10T06:33:31;12.00;99.90
9640;DHT22;51745;50.872;4.732;2023-05-10T06:36:19;12.00;99.90
9640;DHT22;51745;50.872;4.732;2023-05-10T06:39:08;12.00;99.90
9640;DHT22;51745;50.872;4.732;2023-05-10T06:41:57;14.50;99.90
9640;DHT22;51745;50.872;4.732;2023-05-10T06:44:50;13.30;99.90
9640;DHT22;51745;50.872;4.732;2023-05-10T06:47:38;12.30;99.90
9640;DHT22;51745;50.872;4.732;2023-05-10T06:50:26;11.00;99.90
9640;DHT22;51745;50.872;4.732;2023-05-10T06:53:15;12.30;99.90
9640;DHT22;51745;50.872;4.732;2023-05-10T06:56:04;12.40;99.90
9640;DHT22;51745;50.872;4.732;2023-05-10T06:58:51;12.50;99.90
9640;DHT22;51745;50.872;4.732;2023-05-10T07:01:39;12.60;99.90
9640;DHT22;51745;50.872;4.732;2023-05-10T07:04:26;12.60;99.90
9640;DHT22;51745;50.872;4.732;2023-05-10T07:07:14;12.50;99.90
9640;DHT22;51745;50.872;4.732;2023-05-10T07:10:02;12.40;99.90
9640;DHT22;51745;50.872;4.732;2023-05-10T07:12:51;12.30;99.90
9640;DHT22;51745;50.872;4.732;2023-05-10T07:15:44;12.20;99.90
9640;DHT22;51745;50.872;4.732;2023-05-10T07:18:32;12.20;99.90
9640;DHT22;51745;50.872;4.732;2023-05-10T07:21:21;12.40;99.90
9640;DHT22;51745;50.872;4.732;2023-05-10T07:24:10;12.60;99.90
9640;DHT22;51745;50.872;4.732;2023-05-10T07:26:57;12.50;99.90
9640;DHT22;51745;50.872;4.732;2023-05-10T07:29:47;12.60;99.90
9640;DHT22;51745;50.872;4.732;2023-05-10T07:32:34;13.30;99.90
9640;DHT22;51745;50.872;4.732;2023-05-10T07:35:22;12.50;99.90
9640;DHT22;51745;50.872;4.732;2023-05-10T07:38:10;12.30;99.90
9640;DHT22;51745;50.872;4.732;2023-05-10T07:40:58;11.60;99.90
9640;DHT22;51745;50.872;4.732;2023-05-10T07:43:46;12.00;99.90
9640;DHT22;51745;50.872;4.732;2023-05-10T07:46:35;11.90;99.90
9640;DHT22;51745;50.872;4.732;2023-05-10T07:49:23;11.80;99.90
9640;DHT22;51745;50.872;4.732;2023-05-10T07:52:11;11.90;99.90
9640;DHT22;51745;50.872;4.732;2023-05-10T07:54:59;11.80;99.90
9640;DHT22;51745;50.872;4.732;2023-05-10T07:57:48;11.90;99.90
9640;DHT22;51745;50.872;4.732;2023-05-10T08:00:36;11.90;99.90
9640;DHT22;51745;50.872;4.732;2023-05-10T08:03:29;12.00;99.90
9640;DHT22;51745;50.872;4.732;2023-05-10T08:06:17;12.10;99.90
9640;DHT22;51745;50.872;4.732;2023-05-10T08:09:05;11.70;99.90
9640;DHT22;51745;50.872;4.732;2023-05-10T08:11:54;11.60;99.90
9640;DHT22;51745;50.872;4.732;2023-05-10T08:14:42;11.60;99.90
9640;DHT22;51745;50.872;4.732;2023-05-10T08:17:30;11.60;99.90
9640;DHT22;51745;50.872;4.732;2023-05-10T08:20:19;10.80;99.90
9640;DHT22;51745;50.872;4.732;2023-05-10T08:23:07;11.50;99.90
9640;DHT22;51745;50.872;4.732;2023-05-10T08:25:55;11.50;99.90
9640;DHT22;51745;50.872;4.732;2023-05-10T08:28:43;11.50;99.90
9640;DHT22;51745;50.872;4.732;2023-05-10T08:31:30;11.50;99.90
9640;DHT22;51745;50.872;4.732;2023-05-10T08:34:19;11.70;99.90
9640;DHT22;51745;50.872;4.732;2023-05-10T08:37:09;11.60;99.90
9640;DHT22;51745;50.872;4.732;2023-05-10T08:40:00;11.60;99.90
9640;DHT22;51745;50.872;4.732;2023-05-10T08:42:49;11.50;99.90
9640;DHT22;51745;50.872;4.732;2023-05-10T08:45:38;11.50;99.90
9640;DHT22;51745;50.872;4.732;2023-05-10T08:48:29;11.60;99.90
9640;DHT22;51745;50.872;4.732;2023-05-10T08:51:17;11.60;99.90
9640;DHT22;51745;50.872;4.732;2023-05-10T08:54:07;11.50;99.90
9640;DHT22;51745;50.872;4.732;2023-05-10T08:56:55;11.70;99.90
9640;DHT22;51745;50.872;4.732;2023-05-10T08:59:43;11.80;99.90
9640;DHT22;51745;50.872;4.732;2023-05-10T09:02:30;11.80;99.90
9640;DHT22;51745;50.872;4.732;2023-05-10T09:05:19;12.00;99.90
9640;DHT22;51745;50.872;4.732;2023-05-10T09:08:06;11.90;99.90
9640;DHT22;51745;50.872;4.732;2023-05-10T09:10:57;12.00;99.90
9640;DHT22;51745;50.872;4.732;2023-05-10T09:13:45;12.00;99.90
9640;DHT22;51745;50.872;4.732;2023-05-10T09:16:33;12.10;99.90
9640;DHT22;51745;50.872;4.732;2023-05-10T09:19:37;12.00;99.90
9640;DHT22;51745;50.872;4.732;2023-05-10T09:22:26;12.00;99.90
9640;DHT22;51745;50.872;4.732;2023-05-10T09:25:15;12.30;99.90
9640;DHT22;51745;50.872;4.732;2023-05-10T09:28:07;12.10;99.90
9640;DHT22;51745;50.872;4.732;2023-05-10T09:30:56;12.30;99.90
9640;DHT22;51745;50.872;4.732;2023-05-10T09:33:44;14.20;99.90
9640;DHT22;51745;50.872;4.732;2023-05-10T09:36:32;12.20;99.90
9640;DHT22;51745;50.872;4.732;2023-05-10T09:39:30;12.10;99.90
9640;DHT22;51745;50.872;4.732;2023-05-10T09:42:18;12.10;99.90
9640;DHT22;51745;50.872;4.732;2023-05-10T09:45:08;12.20;99.90
9640;DHT22;51745;50.872;4.732;2023-05-10T09:47:56;12.20;99.90
9640;DHT22;51745;50.872;4.732;2023-05-10T09:50:45;12.20;99.90
9640;DHT22;51745;50.872;4.732;2023-05-10T09:53:33;12.10;99.90
9640;DHT22;51745;50.872;4.732;2023-05-10T09:59:28;12.30;99.90
9640;DHT22;51745;50.872;4.732;2023-05-10T10:02:18;12.50;99.90
9640;DHT22;51745;50.872;4.732;2023-05-10T10:05:06;12.80;99.90
9640;DHT22;51745;50.872;4.732;2023-05-10T10:07:54;12.60;99.90
9640;DHT22;51745;50.872;4.732;2023-05-10T10:10:43;12.60;99.90
9640;DHT22;51745;50.872;4.732;2023-05-10T10:13:32;12.30;99.90
9640;DHT22;51745;50.872;4.732;2023-05-10T10:16:21;12.50;99.90
9640;DHT22;51745;50.872;4.732;2023-05-10T10:19:10;13.50;99.90
9640;DHT22;51745;50.872;4.732;2023-05-10T10:21:58;12.40;99.90
9640;DHT22;51745;50.872;4.732;2023-05-10T10:24:46;12.40;99.90
9640;DHT22;51745;50.872;4.732;2023-05-10T10:27:38;12.40;99.90
9640;DHT22;51745;50.872;4.732;2023-05-10T10:30:31;12.30;99.90
9640;DHT22;51745;50.872;4.732;2023-05-10T10:33:39;12.30;99.90
9640;DHT22;51745;50.872;4.732;2023-05-10T10:36:29;12.50;99.90
9640;DHT22;51745;50.872;4.732;2023-05-10T10:39:19;12.60;99.90
9640;DHT22;51745;50.872;4.732;2023-05-10T10:42:08;12.50;99.90
9640;DHT22;51745;50.872;4.732;2023-05-10T10:45:08;12.50;99.90
9640;DHT22;51745;50.872;4.732;2023-05-10T10:51:07;13.10;99.90
9640;DHT22;51745;50.872;4.732;2023-05-10T10:54:00;12.90;99.90
9640;DHT22;51745;50.872;4.732;2023-05-10T10:57:10;12.80;99.90
9640;DHT22;51745;50.872;4.732;2023-05-10T11:03:04;12.80;99.90
9640;DHT22;51745;50.872;4.732;2023-05-10T11:05:57;13.00;99.90
9640;DHT22;51745;50.872;4.732;2023-05-10T11:08:47;13.10;99.90
9640;DHT22;51745;50.872;4.732;2023-05-10T11:11:52;13.00;99.90
9640;DHT22;51745;50.872;4.732;2023-05-10T11:15:01;15.50;99.90
9640;DHT22;51745;50.872;4.732;2023-05-10T11:17:49;13.50;99.90
9640;DHT22;51745;50.872;4.732;2023-05-10T11:20:43;13.20;99.90
9640;DHT22;51745;50.872;4.732;2023-05-10T11:23:50;13.80;99.90
9640;DHT22;51745;50.872;4.732;2023-05-10T11:26:38;14.20;99.90
9640;DHT22;51745;50.872;4.732;2023-05-10T11:29:27;14.50;99.90
9640;DHT22;51745;50.872;4.732;2023-05-10T11:32:16;14.60;99.90
9640;DHT22;51745;50.872;4.732;2023-05-10T11:35:06;14.70;99.90
9640;DHT22;51745;50.872;4.732;2023-05-10T11:37:54;14.50;99.90
9640;DHT22;51745;50.872;4.732;2023-05-10T11:40:42;14.60;99.90
9640;DHT22;51745;50.872;4.732;2023-05-10T11:43:33;14.60;99.90
9640;DHT22;51745;50.872;4.732;2023-05-10T11:46:26;15.00;99.90
9640;DHT22;51745;50.872;4.732;2023-05-10T11:49:14;14.90;99.90
9640;DHT22;51745;50.872;4.732;2023-05-10T11:52:05;14.90;99.90
9640;DHT22;51745;50.872;4.732;2023-05-10T11:54:53;13.10;99.90
9640;DHT22;51745;50.872;4.732;2023-05-10T11:57:42;14.80;99.90
9640;DHT22;51745;50.872;4.732;2023-05-10T12:00:35;14.90;99.90
9640;DHT22;51745;50.872;4.732;2023-05-10T12:03:24;14.80;99.90
9640;DHT22;51745;50.872;4.732;2023-05-10T12:06:12;14.80;99.90
9640;DHT22;51745;50.872;4.732;2023-05-10T12:09:01;14.70;99.90
9640;DHT22;51745;50.872;4.732;2023-05-10T12:11:54;14.70;99.90
9640;DHT22;51745;50.872;4.732;2023-05-10T12:14:42;14.70;99.90
9640;DHT22;51745;50.872;4.732;2023-05-10T12:17:30;14.70;99.90
9640;DHT22;51745;50.872;4.732;2023-05-10T12:20:20;14.80;99.90
9640;DHT22;51745;50.872;4.732;2023-05-10T12:23:08;15.00;99.90
9640;DHT22;51745;50.872;4.732;2023-05-10T12:26:01;14.80;99.90
9640;DHT22;51745;50.872;4.732;2023-05-10T12:28:49;14.70;99.90
9640;DHT22;51745;50.872;4.732;2023-05-10T12:31:48;14.80;99.90
9640;DHT22;51745;50.872;4.732;2023-05-10T12:34:35;14.90;99.90
9640;DHT22;51745;50.872;4.732;2023-05-10T12:37:27;15.00;99.90
9640;DHT22;51745;50.872;4.732;2023-05-10T12:40:15;15.00;99.90
9640;DHT22;51745;50.872;4.732;2023-05-10T12:43:02;15.00;99.90
9640;DHT22;51745;50.872;4.732;2023-05-10T12:45:50;14.80;99.90
9640;DHT22;51745;50.872;4.732;2023-05-10T12:48:38;14.90;99.90
9640;DHT22;51745;50.872;4.732;2023-05-10T12:51:26;15.20;99.90
9640;DHT22;51745;50.872;4.732;2023-05-10T12:54:15;15.30;99.90
9640;DHT22;51745;50.872;4.732;2023-05-10T12:57:03;15.30;99.90
9640;DHT22;51745;50.872;4.732;2023-05-10T12:59:51;15.20;99.90
9640;DHT22;51745;50.872;4.732;2023-05-10T13:02:39;15.10;99.90
9640;DHT22;51745;50.872;4.732;2023-05-10T13:05:27;15.00;99.90
9640;DHT22;51745;50.872;4.732;2023-05-10T13:08:14;14.80;99.90
9640;DHT22;51745;50.872;4.732;2023-05-10T13:11:06;14.60;99.90
9640;DHT22;51745;50.872;4.732;2023-05-10T13:13:56;14.70;99.90
9640;DHT22;51745;50.872;4.732;2023-05-10T13:16:44;14.70;99.90
9640;DHT22;51745;50.872;4.732;2023-05-10T13:19:34;14.60;99.90
9640;DHT22;51745;50.872;4.732;2023-05-10T13:22:22;15.80;99.90
9640;DHT22;51745;50.872;4.732;2023-05-10T13:25:25;15.10;99.90
9640;DHT22;51745;50.872;4.732;2023-05-10T13:28:14;15.10;99.90
9640;DHT22;51745;50.872;4.732;2023-05-10T13:31:04;15.20;99.90
9640;DHT22;51745;50.872;4.732;2023-05-10T13:33:55;15.20;99.90
9640;DHT22;51745;50.872;4.732;2023-05-10T13:36:43;15.20;99.90
9640;DHT22;51745;50.872;4.732;2023-05-10T13:39:31;15.00;99.90
9640;DHT22;51745;50.872;4.732;2023-05-10T13:42:21;15.10;99.90
9640;DHT22;51745;50.872;4.732;2023-05-10T13:45:11;15.00;99.90
9640;DHT22;51745;50.872;4.732;2023-05-10T13:48:02;15.20;99.90
9640;DHT22;51745;50.872;4.732;2023-05-10T13:50:50;15.00;99.90
9640;DHT22;51745;50.872;4.732;2023-05-10T13:53:38;15.20;99.90
9640;DHT22;51745;50.872;4.732;2023-05-10T13:56:26;15.20;99.90
9640;DHT22;51745;50.872;4.732;2023-05-10T13:59:14;15.10;99.90
9640;DHT22;51745;50.872;4.732;2023-05-10T14:02:03;15.10;99.90
9640;DHT22;51745;50.872;4.732;2023-05-10T14:04:52;15.50;99.90
9640;DHT22;51745;50.872;4.732;2023-05-10T14:07:40;14.90;99.90
9640;DHT22;51745;50.872;4.732;2023-05-10T14:10:28;15.00;99.90
9640;DHT22;51745;50.872;4.732;2023-05-10T14:13:16;15.10;99.90
9640;DHT22;51745;50.872;4.732;2023-05-10T14:16:03;15.30;99.90
9640;DHT22;51745;50.872;4.732;2023-05-10T14:18:52;15.50;99.90
9640;DHT22;51745;50.872;4.732;2023-05-10T14:21:41;15.50;99.90
9640;DHT22;51745;50.872;4.732;2023-05-10T14:24:30;15.50;99.90
9640;DHT22;51745;50.872;4.732;2023-05-10T14:27:18;15.50;99.90
9640;DHT22;51745;50.872;4.732;2023-05-10T14:30:07;13.50;99.90
9640;DHT22;51745;50.872;4.732;2023-05-10T14:32:54;15.90;99.90
9640;DHT22;51745;50.872;4.732;2023-05-10T14:35:46;16.00;99.90
9640;DHT22;51745;50.872;4.732;2023-05-10T14:38:34;16.10;99.90
9640;DHT22;51745;50.872;4.732;2023-05-10T14:41:23;16.20;99.90
9640;DHT22;51745;50.872;4.732;2023-05-10T14:44:10;16.20;99.90
9640;DHT22;51745;50.872;4.732;2023-05-10T14:46:58;16.30;99.90
9640;DHT22;51745;50.872;4.732;2023-05-10T14:49:46;16.20;99.90
9640;DHT22;51745;50.872;4.732;2023-05-10T14:52:35;16.50;99.90
9640;DHT22;51745;50.872;4.732;2023-05-10T14:55:23;16.10;99.90
9640;DHT22;51745;50.872;4.732;2023-05-10T14:58:10;16.20;99.90
9640;DHT22;51745;50.872;4.732;2023-05-10T15:00:58;16.20;99.90
9640;DHT22;51745;50.872;4.732;2023-05-10T15:03:46;16.10;99.90
9640;DHT22;51745;50.872;4.732;2023-05-10T15:06:34;16.20;99.90
9640;DHT22;51745;50.872;4.732;2023-05-10T15:09:24;16.00;99.90
9640;DHT22;51745;50.872;4.732;2023-05-10T15:12:11;15.80;99.90
9640;DHT22;51745;50.872;4.732;2023-05-10T15:14:59;15.70;99.90
9640;DHT22;51745;50.872;4.732;2023-05-10T15:17:47;15.70;99.90
9640;DHT22;51745;50.872;4.732;2023-05-10T15:20:34;15.60;99.90
9640;DHT22;51745;50.872;4.732;2023-05-10T15:23:23;15.50;99.90
9640;DHT22;51745;50.872;4.732;2023-05-10T15:26:13;16.30;99.90
9640;DHT22;51745;50.872;4.732;2023-05-10T15:29:01;15.60;99.90
9640;DHT22;51745;50.872;4.732;2023-05-10T15:31:49;15.70;99.90
9640;DHT22;51745;50.872;4.732;2023-05-10T15:34:38;15.60;99.90
9640;DHT22;51745;50.872;4.732;2023-05-10T15:37:26;15.70;99.90
9640;DHT22;51745;50.872;4.732;2023-05-10T15:40:14;15.80;99.90
9640;DHT22;51745;50.872;4.732;2023-05-10T15:43:04;16.00;99.90
9640;DHT22;51745;50.872;4.732;2023-05-10T15:45:54;15.90;99.90
9640;DHT22;51745;50.872;4.732;2023-05-10T15:48:42;16.00;99.90
9640;DHT22;51745;50.872;4.732;2023-05-10T15:51:31;15.80;99.90
9640;DHT22;51745;50.872;4.732;2023-05-10T15:54:21;15.50;99.90
9640;DHT22;51745;50.872;4.732;2023-05-10T15:57:10;15.40;99.90
9640;DHT22;51745;50.872;4.732;2023-05-10T15:59:58;15.20;99.90
9640;DHT22;51745;50.872;4.732;2023-05-10T16:02:47;14.90;99.90
9640;DHT22;51745;50.872;4.732;2023-05-10T16:05:35;14.50;99.90
9640;DHT22;51745;50.872;4.732;2023-05-10T16:08:26;14.20;99.90
9640;DHT22;51745;50.872;4.732;2023-05-10T16:11:16;13.90;99.90
9640;DHT22;51745;50.872;4.732;2023-05-10T16:14:03;13.90;99.90
9640;DHT22;51745;50.872;4.732;2023-05-10T16:16:54;13.80;99.90
9640;DHT22;51745;50.872;4.732;2023-05-10T16:19:42;13.70;99.90
9640;DHT22;51745;50.872;4.732;2023-05-10T16:22:29;13.60;99.90
9640;DHT22;51745;50.872;4.732;2023-05-10T16:25:17;13.50;99.90
9640;DHT22;51745;50.872;4.732;2023-05-10T16:28:05;13.40;99.90
9640;DHT22;51745;50.872;4.732;2023-05-10T16:30:53;14.10;99.90
9640;DHT22;51745;50.872;4.732;2023-05-10T16:33:42;13.30;99.90
9640;DHT22;51745;50.872;4.732;2023-05-10T16:36:31;13.30;99.90
9640;DHT22;51745;50.872;4.732;2023-05-10T16:39:18;13.10;99.90
9640;DHT22;51745;50.872;4.732;2023-05-10T16:42:07;13.30;99.90
9640;DHT22;51745;50.872;4.732;2023-05-10T16:44:54;13.10;99.90
9640;DHT22;51745;50.872;4.732;2023-05-10T16:47:42;13.10;99.90
9640;DHT22;51745;50.872;4.732;2023-05-10T16:50:31;12.50;99.90
9640;DHT22;51745;50.872;4.732;2023-05-10T16:53:19;13.10;99.90
9640;DHT22;51745;50.872;4.732;2023-05-10T16:56:06;12.70;99.90
9640;DHT22;51745;50.872;4.732;2023-05-10T16:58:54;12.90;99.90
9640;DHT22;51745;50.872;4.732;2023-05-10T17:01:42;12.90;99.90
9640;DHT22;51745;50.872;4.732;2023-05-10T17:04:30;12.90;99.90
9640;DHT22;51745;50.872;4.732;2023-05-10T17:07:21;12.90;99.90
9640;DHT22;51745;50.872;4.732;2023-05-10T17:10:11;12.90;99.90
9640;DHT22;51745;50.872;4.732;2023-05-10T17:12:58;12.90;99.90
9640;DHT22;51745;50.872;4.732;2023-05-10T17:15:46;12.80;99.90
9640;DHT22;51745;50.872;4.732;2023-05-10T17:18:35;12.90;99.90
9640;DHT22;51745;50.872;4.732;2023-05-10T17:21:24;12.90;99.90
9640;DHT22;51745;50.872;4.732;2023-05-10T17:24:14;12.80;99.90
9640;DHT22;51745;50.872;4.732;2023-05-10T17:27:03;12.90;99.90
9640;DHT22;51745;50.872;4.732;2023-05-10T17:29:54;12.90;99.90
9640;DHT22;51745;50.872;4.732;2023-05-10T17:32:42;13.00;99.90
9640;DHT22;51745;50.872;4.732;2023-05-10T17:35:32;13.00;99.90
9640;DHT22;51745;50.872;4.732;2023-05-10T17:38:22;13.00;99.90
9640;DHT22;51745;50.872;4.732;2023-05-10T17:41:12;12.90;99.90
9640;DHT22;51745;50.872;4.732;2023-05-10T17:44:00;13.10;99.90
9640;DHT22;51745;50.872;4.732;2023-05-10T17:46:48;13.20;99.90
9640;DHT22;51745;50.872;4.732;2023-05-10T17:49:36;12.90;99.90
9640;DHT22;51745;50.872;4.732;2023-05-10T17:52:25;13.00;99.90
9640;DHT22;51745;50.872;4.732;2023-05-10T17:55:17;12.80;99.90
9640;DHT22;51745;50.872;4.732;2023-05-10T17:58:07;12.70;99.90
9640;DHT22;51745;50.872;4.732;2023-05-10T18:00:55;12.80;99.90
9640;DHT22;51745;50.872;4.732;2023-05-10T18:03:47;12.80;99.90
9640;DHT22;51745;50.872;4.732;2023-05-10T18:06:36;13.00;99.90
9640;DHT22;51745;50.872;4.732;2023-05-10T18:09:24;12.70;99.90
9640;DHT22;51745;50.872;4.732;2023-05-10T18:12:15;12.70;99.90
9640;DHT22;51745;50.872;4.732;2023-05-10T18:15:05;13.70;99.90
9640;DHT22;51745;50.872;4.732;2023-05-10T18:17:53;12.80;99.90